Maupin, OR

3:13 AM PDT on September 19, 2014 (GMT -0700)
Roberts Field Airport | Change Station
CLOSE
Current Station
Airport
Location: Redmond,
Elevation: 3077 ft
Nearby Weather Stations

Elev 3077 ft 44.25 °N, 121.15 °W | Updated 17 minutes ago

Partly Cloudy
Partly Cloudy
48 °F
Feels Like 48 °F
N
4
Wind Variable Wind from SSE

Today
High -- | Low -- °F
--% Chance of Precip.
Yesterday
High -- | Low -- °F
Precip. -- in
6:49 AM 7:08 PM
Waning Crescent, 20% visible
Pressure 30.01 in
Visibility 10.0 miles
Clouds Clear
Dew Point 45 °F
Humidity 89%
Rainfall 0.00 in
Snow Depth 0 in , 0 in , 0 in
UV 0 out of 12
Pollen 1.20 out of 12
Air Quality Not available.
Flu Activity Not available.
METAR KRDM 190956Z AUTO 16003KT 10SM CLR 09/07 A3005 RMK AO2 SLP162 T00890072

More Conditions Fewer Conditions

Pressure 30.01 in
Visibility 10.0 miles
Clouds Clear
Dew Point 45 °F
Humidity 89%
Rainfall 0.00 in
Snow Depth 0 in , 0 in , 0 in
UV 0 out of 12
Pollen 1.20 out of 12
Air Quality Not available.
Flu Activity Not available.
METAR KRDM 190956Z AUTO 16003KT 10SM CLR 09/07 A3005 RMK AO2 SLP162 T00890072

More Conditions Fewer Conditions

10-Day Weather Forecast

Almanac

Astronomy

Sep. 19, 2014 Rise Set
Actual Time 6:49 AM PDT 7:08 PM PDT
Civil Twilight 6:19 AM PDT 7:37 PM PDT
Nautical Twilight 5:44 AM PDT 8:12 PM PDT
Astronomical Twilight 5:09 AM PDT 8:48 PM PDT
Moon 2:30 AM PDT 4:48 PM PDT
Length of Visible Light 13h 18m
Length of Day
12h 19m
Tomorrow will be 3m 7s shorter.
Waning Crescent, 20% of the Moon is Illuminated
Today
Waning Crescent
Sep 24
New
Oct 1
First Quarter
Oct 8
Full
Oct 15
Last Quarter

Today's Extremes

State Highs State Lows

Community

WunderPhotos

Upload Photos

1,754,583 photos uploaded!

Nearby

Snow Depth

Station Depth Elevation
Gerber Reservoir 0 in 4850 ft
Fourmile Lake 0 in 6000 ft
Clackamas Lake 0 in 3400 ft
Annie Springs 0 in 6020 ft
Santiam Junction 0 in 3750 ft

Earthquake Activity

City Distance Mag. Time & Date
Morton, Washington 99 miles 3.0 5:43 AM PDT
2014-09-16
Minimum magnitude displayed is 2.5.

Coastal Water Temperatures

Place Temperature
No Stations Reporting

Nearby Weather Stations